createdAt,value
2022-07-31T00:00:30.730Z,11.73
2022-07-31T00:02:59.575Z,11.82
2022-07-31T00:05:28.338Z,12.73
2022-07-31T00:07:58.367Z,11.95
2022-07-31T00:10:26.894Z,12.27
2022-07-31T00:12:55.321Z,12.35
2022-07-31T00:15:23.667Z,10.35
2022-07-31T00:17:52.695Z,10.60
2022-07-31T00:20:21.321Z,11.23
2022-07-31T00:22:50.543Z,9.32
2022-07-31T00:25:20.490Z,14.25
2022-07-31T00:27:48.984Z,10.07
2022-07-31T00:30:17.969Z,13.07
2022-07-31T00:32:46.823Z,8.93
2022-07-31T00:35:17.642Z,12.18
2022-07-31T00:37:46.077Z,11.27
2022-07-31T00:40:17.299Z,8.82
2022-07-31T00:42:47.205Z,11.10
2022-07-31T00:45:15.669Z,9.57
2022-07-31T00:47:44.901Z,7.63
2022-07-31T00:50:14.063Z,9.40
2022-07-31T00:52:43.590Z,9.05
2022-07-31T00:55:13.902Z,7.85
2022-07-31T00:57:43.627Z,9.98
2022-07-31T01:00:18.665Z,9.88
2022-07-31T01:02:47.587Z,10.07
2022-07-31T01:05:18.814Z,7.10
2022-07-31T01:07:51.460Z,9.80
2022-07-31T01:10:39.930Z,8.00
2022-07-31T01:13:16.244Z,13.85
2022-07-31T01:15:46.959Z,6.13
2022-07-31T01:18:17.116Z,7.78
2022-07-31T01:20:48.266Z,7.85
2022-07-31T01:23:55.031Z,7.03
2022-07-31T01:26:59.057Z,8.85
2022-07-31T01:29:33.119Z,11.40
2022-07-31T01:32:07.678Z,8.45
2022-07-31T01:34:43.663Z,8.57
2022-07-31T01:37:20.783Z,9.00
2022-07-31T01:39:57.537Z,9.68
2022-07-31T01:42:27.147Z,6.78
2022-07-31T01:45:01.609Z,10.55
2022-07-31T01:47:33.035Z,8.13
2022-07-31T01:50:04.823Z,7.63
2022-07-31T01:52:34.863Z,10.88
2022-07-31T01:55:06.677Z,6.90
2022-07-31T01:57:36.305Z,9.88
2022-07-31T02:00:33.174Z,8.20
2022-07-31T02:03:01.413Z,9.48
2022-07-31T02:05:42.391Z,10.07
2022-07-31T02:08:12.738Z,10.38
2022-07-31T02:10:46.265Z,9.70
2022-07-31T02:13:17.825Z,10.63
2022-07-31T02:15:49.001Z,9.70
2022-07-31T02:18:21.656Z,7.97
2022-07-31T02:21:08.663Z,8.40
2022-07-31T02:23:38.649Z,9.70
2022-07-31T02:26:09.082Z,8.87
2022-07-31T02:28:42.441Z,8.70
2022-07-31T02:31:14.612Z,10.95
2022-07-31T02:33:48.123Z,9.10
2022-07-31T02:36:20.197Z,7.82
2022-07-31T02:38:50.599Z,8.90
2022-07-31T02:41:20.547Z,7.60
2022-07-31T02:43:52.644Z,10.57
2022-07-31T02:46:24.492Z,12.88
2022-07-31T02:48:53.851Z,9.90
2022-07-31T02:51:24.840Z,9.55
2022-07-31T02:53:54.758Z,9.35
2022-07-31T02:56:26.541Z,9.50
2022-07-31T02:58:55.743Z,9.13
2022-07-31T03:01:30.945Z,8.18
2022-07-31T03:06:29.780Z,7.75
2022-07-31T03:08:59.317Z,10.95
2022-07-31T03:11:30.049Z,8.90
2022-07-31T03:14:01.912Z,7.53
2022-07-31T03:16:34.047Z,9.65
2022-07-31T03:19:05.369Z,7.28
2022-07-31T03:21:33.952Z,10.07
2022-07-31T03:24:05.982Z,8.20
2022-07-31T03:26:35.268Z,8.38
2022-07-31T03:29:03.800Z,12.73
2022-07-31T03:31:33.633Z,9.63
2022-07-31T03:34:02.653Z,13.10
2022-07-31T03:36:32.093Z,11.75
2022-07-31T03:39:00.507Z,11.48
2022-07-31T03:41:36.631Z,13.23
2022-07-31T03:44:07.931Z,13.07
2022-07-31T03:46:37.684Z,13.93
2022-07-31T03:49:06.795Z,12.20
2022-07-31T03:51:36.032Z,13.77
2022-07-31T03:54:04.993Z,12.80
2022-07-31T03:56:50.936Z,12.13
2022-07-31T03:59:21.707Z,14.68
2022-07-31T04:01:58.212Z,20.45
2022-07-31T04:04:45.273Z,19.10
2022-07-31T04:07:13.750Z,17.02
2022-07-31T04:09:42.888Z,17.48
2022-07-31T04:12:12.902Z,20.10
2022-07-31T04:14:41.696Z,18.55
2022-07-31T04:17:11.497Z,18.52
2022-07-31T04:19:39.939Z,21.88
2022-07-31T04:22:09.055Z,17.27
2022-07-31T04:27:25.483Z,19.33
2022-07-31T04:29:55.568Z,22.27
2022-07-31T04:32:25.612Z,21.13
2022-07-31T04:35:03.967Z,22.05
2022-07-31T04:37:33.498Z,25.40
2022-07-31T04:40:01.861Z,22.60
2022-07-31T04:42:32.732Z,24.67
2022-07-31T04:45:01.724Z,26.85
2022-07-31T04:47:31.390Z,22.02
2022-07-31T04:50:00.138Z,22.75
2022-07-31T04:52:28.597Z,21.70
2022-07-31T04:55:03.141Z,20.80
2022-07-31T04:57:31.523Z,22.05
2022-07-31T05:00:01.299Z,23.50
2022-07-31T05:02:35.891Z,23.95
2022-07-31T05:05:05.111Z,21.13
2022-07-31T05:07:39.861Z,24.30
2022-07-31T05:10:29.984Z,25.52
2022-07-31T05:12:58.347Z,28.92
2022-07-31T05:15:26.870Z,28.63
2022-07-31T05:17:57.522Z,28.98
2022-07-31T05:20:54.850Z,27.13
2022-07-31T05:23:38.259Z,28.98
2022-07-31T05:26:17.992Z,31.73
2022-07-31T05:28:46.876Z,26.55
2022-07-31T05:31:15.539Z,31.88
2022-07-31T05:33:45.653Z,27.38
2022-07-31T05:36:14.063Z,25.05
2022-07-31T05:38:43.443Z,27.63
2022-07-31T05:41:26.909Z,26.05
2022-07-31T05:44:01.496Z,27.95
2022-07-31T05:46:39.676Z,25.38
2022-07-31T05:49:10.510Z,23.85
2022-07-31T05:51:39.052Z,35.00
2022-07-31T05:54:07.467Z,29.75
2022-07-31T05:56:54.648Z,25.80
2022-07-31T05:59:32.339Z,35.28
2022-07-31T06:02:01.208Z,25.50
2022-07-31T06:04:32.217Z,25.02
2022-07-31T06:07:01.123Z,31.23
2022-07-31T06:09:31.415Z,28.42
2022-07-31T06:12:00.119Z,30.92
2022-07-31T06:14:28.779Z,29.90
2022-07-31T06:17:17.519Z,30.42
2022-07-31T06:19:47.373Z,30.25
2022-07-31T06:22:17.577Z,31.30
2022-07-31T06:24:46.154Z,27.20
2022-07-31T06:27:33.159Z,27.05
2022-07-31T06:30:03.083Z,28.60
2022-07-31T06:32:31.837Z,33.03
2022-07-31T06:35:02.543Z,28.60
2022-07-31T06:37:33.853Z,25.00
2022-07-31T06:40:02.860Z,29.85
2022-07-31T06:42:49.775Z,26.35
2022-07-31T06:45:51.699Z,29.63
2022-07-31T06:48:40.741Z,36.38
2022-07-31T06:51:30.267Z,32.47
2022-07-31T06:53:59.483Z,36.90
2022-07-31T06:56:28.567Z,28.40
2022-07-31T06:58:57.453Z,38.13
2022-07-31T07:01:25.818Z,32.78
2022-07-31T07:03:54.523Z,36.45
2022-07-31T07:06:25.319Z,31.60
2022-07-31T07:08:54.239Z,28.73
2022-07-31T07:11:23.689Z,28.05
2022-07-31T07:13:52.079Z,27.50
2022-07-31T07:16:21.275Z,26.40
2022-07-31T07:18:50.003Z,34.00
2022-07-31T07:21:18.543Z,25.48
2022-07-31T07:23:48.540Z,27.77
2022-07-31T07:26:29.444Z,28.70
2022-07-31T07:28:57.893Z,26.35
2022-07-31T07:31:26.298Z,26.63
2022-07-31T07:33:55.777Z,29.85
2022-07-31T07:39:05.792Z,26.20
2022-07-31T07:41:35.606Z,25.85
2022-07-31T07:44:04.125Z,24.60
2022-07-31T07:46:32.558Z,25.13
2022-07-31T07:49:05.625Z,26.15
2022-07-31T07:51:38.551Z,26.45
2022-07-31T07:54:33.945Z,27.27
2022-07-31T07:57:22.280Z,23.10
2022-07-31T08:00:09.657Z,25.95
2022-07-31T08:03:46.406Z,21.60
2022-07-31T08:05:48.518Z,24.15
2022-07-31T08:08:16.928Z,24.15
2022-07-31T08:10:52.687Z,25.73
2022-07-31T08:13:28.789Z,24.30
2022-07-31T08:16:15.745Z,27.13
2022-07-31T08:18:51.835Z,28.35
2022-07-31T08:21:20.233Z,23.35
2022-07-31T08:23:48.939Z,23.73
2022-07-31T08:26:19.335Z,29.05
2022-07-31T08:28:51.007Z,29.27
2022-07-31T08:31:23.720Z,22.65
2022-07-31T08:34:31.346Z,32.58
2022-07-31T08:37:59.156Z,26.77
2022-07-31T08:39:53.145Z,30.30
2022-07-31T08:42:23.062Z,30.80
2022-07-31T08:44:51.923Z,31.92
2022-07-31T08:47:26.198Z,36.60
2022-07-31T08:49:58.009Z,32.03
2022-07-31T08:52:28.621Z,41.63
2022-07-31T08:55:09.400Z,37.28
2022-07-31T08:57:39.742Z,40.28
2022-07-31T09:00:12.982Z,39.22
2022-07-31T09:02:42.316Z,42.75
2022-07-31T09:05:17.222Z,38.53
2022-07-31T09:07:45.658Z,37.90
2022-07-31T09:10:25.422Z,33.35
2022-07-31T09:12:56.750Z,35.40
2022-07-31T09:15:30.014Z,36.00
2022-07-31T09:18:02.212Z,32.08
2022-07-31T09:20:33.235Z,33.40
2022-07-31T09:23:10.340Z,32.47
2022-07-31T09:25:54.024Z,35.40
2022-07-31T09:28:34.516Z,26.25
2022-07-31T09:31:04.700Z,31.10
2022-07-31T09:34:12.055Z,29.00
2022-07-31T09:36:40.714Z,28.00
2022-07-31T09:39:31.470Z,25.30
2022-07-31T09:42:44.294Z,31.88
2022-07-31T09:45:25.732Z,27.00
2022-07-31T09:48:08.220Z,25.30
2022-07-31T09:50:36.882Z,26.15
2022-07-31T09:53:06.661Z,23.98
2022-07-31T09:55:36.672Z,25.75
2022-07-31T09:58:05.339Z,26.58
2022-07-31T10:00:42.650Z,23.73
2022-07-31T10:03:14.879Z,20.40
2022-07-31T10:05:44.868Z,24.10
2022-07-31T10:08:17.235Z,23.77
2022-07-31T10:11:16.590Z,24.50
2022-07-31T10:13:58.126Z,23.20
2022-07-31T10:16:31.108Z,18.17
2022-07-31T10:19:33.929Z,19.90
2022-07-31T10:22:25.155Z,21.23
2022-07-31T10:24:56.303Z,19.35
2022-07-31T10:27:24.996Z,30.05
2022-07-31T10:30:10.474Z,17.48
2022-07-31T10:32:45.525Z,17.83
2022-07-31T10:35:29.171Z,11.93
2022-07-31T10:38:24.137Z,16.40
2022-07-31T10:41:03.986Z,15.38
2022-07-31T10:43:47.810Z,14.82
2022-07-31T10:46:28.716Z,11.77
2022-07-31T10:49:46.313Z,10.95
2022-07-31T10:52:57.305Z,12.65
2022-07-31T10:55:36.680Z,14.38
2022-07-31T10:58:32.603Z,14.38
2022-07-31T11:01:12.159Z,12.82
2022-07-31T11:04:05.175Z,17.90
2022-07-31T11:07:21.146Z,20.50
2022-07-31T11:10:16.363Z,18.23
2022-07-31T11:13:05.628Z,16.67
2022-07-31T11:16:05.441Z,16.25
2022-07-31T11:19:01.935Z,18.88
2022-07-31T11:21:38.897Z,16.23
2022-07-31T11:24:16.676Z,15.45
2022-07-31T11:26:50.961Z,18.60
2022-07-31T11:30:00.870Z,19.70
2022-07-31T11:32:24.805Z,12.82
2022-07-31T11:34:57.558Z,14.98
2022-07-31T11:37:46.299Z,17.52
2022-07-31T11:40:18.678Z,20.45
2022-07-31T11:43:10.388Z,15.27
2022-07-31T11:45:48.297Z,14.15
2022-07-31T11:48:19.316Z,13.68
2022-07-31T11:50:49.102Z,14.77
2022-07-31T11:53:17.882Z,16.02
2022-07-31T11:55:49.936Z,17.92
2022-07-31T11:58:20.813Z,16.35
2022-07-31T12:00:55.106Z,14.23
2022-07-31T12:03:26.557Z,13.55
2022-07-31T12:05:55.160Z,15.93
2022-07-31T12:08:25.283Z,11.93
2022-07-31T12:10:57.732Z,15.88
2022-07-31T12:13:27.771Z,13.27
2022-07-31T12:16:04.239Z,20.05
2022-07-31T12:18:35.366Z,14.65
2022-07-31T12:21:05.986Z,16.00
2022-07-31T12:26:14.375Z,14.75
2022-07-31T12:28:43.938Z,12.57
2022-07-31T12:31:12.460Z,14.13
2022-07-31T12:33:45.744Z,17.00
2022-07-31T12:36:16.986Z,13.18
2022-07-31T12:38:48.201Z,16.45
2022-07-31T12:41:18.786Z,14.27
2022-07-31T12:43:51.317Z,15.55
2022-07-31T12:46:22.769Z,13.30
2022-07-31T12:48:52.078Z,15.13
2022-07-31T12:51:44.100Z,15.32
2022-07-31T12:54:12.175Z,15.38
2022-07-31T12:56:43.068Z,19.52
2022-07-31T12:59:12.941Z,15.43
2022-07-31T13:01:41.493Z,21.77
2022-07-31T13:04:18.338Z,20.42
2022-07-31T13:06:51.555Z,16.95
2022-07-31T13:09:21.097Z,14.82
2022-07-31T13:11:55.819Z,15.00
2022-07-31T13:14:26.236Z,20.30
2022-07-31T13:16:56.047Z,18.10
2022-07-31T13:19:24.741Z,13.80
2022-07-31T13:21:56.812Z,15.73
2022-07-31T13:24:25.619Z,15.15
2022-07-31T13:26:58.692Z,16.27
2022-07-31T13:29:27.123Z,17.17
2022-07-31T13:31:55.639Z,11.90
2022-07-31T13:34:24.158Z,12.25
2022-07-31T13:36:52.603Z,12.82
2022-07-31T13:39:21.025Z,14.00
2022-07-31T13:41:49.353Z,13.38
2022-07-31T13:44:19.074Z,13.95
2022-07-31T13:46:47.386Z,16.43
2022-07-31T13:49:15.840Z,13.07
2022-07-31T13:51:44.274Z,12.70
2022-07-31T13:54:13.345Z,18.38
2022-07-31T13:56:43.671Z,15.40
2022-07-31T13:59:16.200Z,16.35
2022-07-31T14:02:03.363Z,16.58
2022-07-31T14:04:38.779Z,21.30
2022-07-31T14:07:09.116Z,19.30
2022-07-31T14:09:37.995Z,16.65
2022-07-31T14:12:07.546Z,18.58
2022-07-31T14:14:37.906Z,18.50
2022-07-31T14:17:07.671Z,24.23
2022-07-31T14:19:42.055Z,20.65
2022-07-31T14:22:14.465Z,21.30
2022-07-31T14:24:50.056Z,21.83
2022-07-31T14:27:21.012Z,18.42
2022-07-31T14:29:49.592Z,18.63
2022-07-31T14:32:21.849Z,19.95
2022-07-31T14:34:50.978Z,17.13
2022-07-31T14:37:20.523Z,17.38
2022-07-31T14:39:49.068Z,24.33
2022-07-31T14:42:22.523Z,18.20
2022-07-31T14:44:54.453Z,18.73
2022-07-31T14:47:24.274Z,17.23
2022-07-31T14:50:07.522Z,20.13
2022-07-31T14:52:39.426Z,19.75
2022-07-31T14:55:09.472Z,18.38
2022-07-31T14:57:37.911Z,17.98
2022-07-31T15:00:12.822Z,20.20
2022-07-31T15:02:44.538Z,19.48
2022-07-31T15:06:41.630Z,18.83
2022-07-31T15:08:03.592Z,18.35
2022-07-31T15:10:32.890Z,20.27
2022-07-31T15:13:01.172Z,23.08
2022-07-31T15:15:29.532Z,21.60
2022-07-31T15:18:01.748Z,20.17
2022-07-31T15:20:32.972Z,25.70
2022-07-31T15:23:01.571Z,21.27
2022-07-31T15:25:30.092Z,22.80
2022-07-31T15:27:58.501Z,29.40
2022-07-31T15:30:26.819Z,24.08
2022-07-31T15:32:55.169Z,24.33
2022-07-31T15:35:25.081Z,20.42
2022-07-31T15:37:53.607Z,24.30
2022-07-31T15:40:22.004Z,20.70
2022-07-31T15:42:50.343Z,28.92
2022-07-31T15:45:20.909Z,28.60
2022-07-31T15:50:20.221Z,30.75
2022-07-31T15:55:19.276Z,36.55
2022-07-31T15:57:47.902Z,27.50
2022-07-31T16:00:17.376Z,24.23
2022-07-31T16:02:45.878Z,30.45
2022-07-31T16:05:21.734Z,26.65
2022-07-31T16:08:29.639Z,28.58
2022-07-31T16:10:54.824Z,26.83
2022-07-31T16:13:24.251Z,30.67
2022-07-31T16:15:53.004Z,31.95
2022-07-31T16:18:21.853Z,22.52
2022-07-31T16:20:50.343Z,28.05
2022-07-31T16:23:20.040Z,28.23
2022-07-31T16:25:48.464Z,31.53
2022-07-31T16:28:16.827Z,31.88
2022-07-31T16:30:45.854Z,30.20
2022-07-31T16:33:14.413Z,29.50
2022-07-31T16:35:42.826Z,33.22
2022-07-31T16:38:11.218Z,43.58
2022-07-31T16:40:41.123Z,37.13
2022-07-31T16:43:50.609Z,34.97
2022-07-31T16:45:59.707Z,35.35
2022-07-31T16:48:28.048Z,27.38
2022-07-31T16:50:56.510Z,32.17
2022-07-31T16:54:13.757Z,31.02
2022-07-31T16:56:16.657Z,36.65
2022-07-31T16:58:45.119Z,35.35
2022-07-31T17:01:58.918Z,31.25
2022-07-31T17:04:04.383Z,27.33
2022-07-31T17:06:34.705Z,32.28
2022-07-31T17:09:17.238Z,33.85
2022-07-31T17:11:50.435Z,30.25
2022-07-31T17:14:21.618Z,30.13
2022-07-31T17:16:51.730Z,26.08
2022-07-31T17:19:41.107Z,30.38
2022-07-31T17:22:18.008Z,27.45
2022-07-31T17:24:50.673Z,27.95
2022-07-31T17:27:22.797Z,30.10
2022-07-31T17:29:51.461Z,29.55
2022-07-31T17:32:19.780Z,28.48
2022-07-31T17:34:49.542Z,30.10
2022-07-31T17:37:18.220Z,26.73
2022-07-31T17:39:47.641Z,38.05
2022-07-31T17:42:18.054Z,28.30
2022-07-31T17:44:55.021Z,35.97
2022-07-31T17:47:25.754Z,30.67
2022-07-31T17:49:55.416Z,32.00
2022-07-31T17:52:24.018Z,29.05
2022-07-31T17:54:53.625Z,27.92
2022-07-31T17:57:22.933Z,29.63
2022-07-31T17:59:53.657Z,34.92
2022-07-31T18:04:51.041Z,25.65
2022-07-31T18:07:22.731Z,32.33
2022-07-31T18:09:51.302Z,32.38
2022-07-31T18:12:19.688Z,28.35
2022-07-31T18:14:48.724Z,31.02
2022-07-31T18:17:19.390Z,28.90
2022-07-31T18:22:15.926Z,33.95
2022-07-31T18:24:44.321Z,28.13
2022-07-31T18:27:12.604Z,35.50
2022-07-31T18:29:40.971Z,34.05
2022-07-31T18:32:09.284Z,28.35
2022-07-31T18:34:39.017Z,27.60
2022-07-31T18:37:07.379Z,28.93
2022-07-31T18:39:47.894Z,31.83
2022-07-31T18:42:17.729Z,34.28
2022-07-31T18:44:46.125Z,26.42
2022-07-31T18:47:14.755Z,35.55
2022-07-31T18:51:00.416Z,33.72
2022-07-31T18:52:32.898Z,28.40
2022-07-31T18:55:01.317Z,31.58
2022-07-31T18:57:30.473Z,26.00
2022-07-31T18:59:58.794Z,26.70
2022-07-31T19:02:28.129Z,25.92
2022-07-31T19:04:58.541Z,25.70
2022-07-31T19:07:27.499Z,28.33
2022-07-31T19:09:55.879Z,25.52
2022-07-31T19:12:24.558Z,26.10
2022-07-31T19:14:53.158Z,25.20
2022-07-31T19:17:21.686Z,28.73
2022-07-31T19:19:55.034Z,33.00
2022-07-31T19:22:31.465Z,33.50
2022-07-31T19:24:59.847Z,37.17
2022-07-31T19:27:47.135Z,34.30
2022-07-31T19:30:16.941Z,33.70
2022-07-31T19:32:45.260Z,29.58
2022-07-31T19:35:13.596Z,35.38
2022-07-31T19:37:43.357Z,33.75
2022-07-31T19:40:12.880Z,34.80
2022-07-31T19:42:41.277Z,33.20
2022-07-31T19:45:10.678Z,29.23
2022-07-31T19:47:39.213Z,26.70
2022-07-31T19:50:08.752Z,31.92
2022-07-31T19:52:37.126Z,31.05
2022-07-31T19:55:09.112Z,29.48
2022-07-31T19:57:38.229Z,30.58
2022-07-31T20:00:09.574Z,28.55
2022-07-31T20:02:38.305Z,36.75
2022-07-31T20:05:09.040Z,27.58
2022-07-31T20:07:38.615Z,31.63
2022-07-31T20:10:10.810Z,31.55
2022-07-31T20:12:40.819Z,28.77
2022-07-31T20:15:10.716Z,26.10
2022-07-31T20:17:39.579Z,28.63
2022-07-31T20:20:16.065Z,33.72
2022-07-31T20:22:44.929Z,29.80
2022-07-31T20:25:20.354Z,29.95
2022-07-31T20:27:49.919Z,31.48
2022-07-31T20:30:21.831Z,27.55
2022-07-31T20:32:51.519Z,32.45
2022-07-31T20:35:31.217Z,34.43
2022-07-31T20:38:15.571Z,30.10
2022-07-31T20:40:48.265Z,28.73
2022-07-31T20:43:21.984Z,28.88
2022-07-31T20:45:50.390Z,27.65
2022-07-31T20:48:18.843Z,30.27
2022-07-31T20:50:48.213Z,26.98
2022-07-31T20:53:17.360Z,24.83
2022-07-31T20:55:49.726Z,24.15
2022-07-31T20:58:18.928Z,25.92
2022-07-31T21:00:48.398Z,24.40
2022-07-31T21:03:17.741Z,21.27
2022-07-31T21:05:47.064Z,18.05
2022-07-31T21:08:15.559Z,19.35
2022-07-31T21:10:44.273Z,16.48
2022-07-31T21:13:14.359Z,18.90
2022-07-31T21:15:45.319Z,17.17
2022-07-31T21:18:15.623Z,16.27
2022-07-31T21:20:51.740Z,13.25
2022-07-31T21:23:23.658Z,13.40
2022-07-31T21:25:52.719Z,13.63
2022-07-31T21:28:24.101Z,13.27
2022-07-31T21:30:55.757Z,10.55
2022-07-31T21:33:26.689Z,13.43
2022-07-31T21:35:55.540Z,12.65
2022-07-31T21:38:24.622Z,16.08
2022-07-31T21:40:56.311Z,12.32
2022-07-31T21:43:30.483Z,13.57
2022-07-31T21:46:20.890Z,11.65
2022-07-31T21:48:51.253Z,10.07
2022-07-31T21:51:20.330Z,11.32
2022-07-31T21:53:48.740Z,12.88
2022-07-31T21:56:17.200Z,13.45
2022-07-31T21:58:46.959Z,10.07
2022-07-31T22:01:15.760Z,11.20
2022-07-31T22:03:44.235Z,10.30
2022-07-31T22:06:29.959Z,10.18
2022-07-31T22:08:58.477Z,12.57
2022-07-31T22:11:26.804Z,11.82
2022-07-31T22:13:56.536Z,11.00
2022-07-31T22:16:24.913Z,10.30
2022-07-31T22:18:54.071Z,12.30
2022-07-31T22:21:23.675Z,11.80
2022-07-31T22:23:52.579Z,13.00
2022-07-31T22:26:21.683Z,11.25
2022-07-31T22:28:50.280Z,10.77
2022-07-31T22:31:20.527Z,10.30
2022-07-31T22:33:49.113Z,16.83
2022-07-31T22:36:18.598Z,10.20
2022-07-31T22:38:48.353Z,10.10
2022-07-31T22:41:16.868Z,9.93
2022-07-31T22:44:12.089Z,10.05
2022-07-31T22:46:36.563Z,9.13
2022-07-31T22:49:08.593Z,8.40
2022-07-31T22:51:38.685Z,9.00
2022-07-31T22:54:08.093Z,8.45
2022-07-31T22:56:36.523Z,10.27
2022-07-31T22:59:05.136Z,7.75
2022-07-31T23:01:34.917Z,8.30
2022-07-31T23:04:03.352Z,8.32
2022-07-31T23:06:32.803Z,8.80
2022-07-31T23:09:02.582Z,8.05
2022-07-31T23:11:31.212Z,8.75
2022-07-31T23:13:59.589Z,8.32
2022-07-31T23:16:28.293Z,8.10
2022-07-31T23:18:58.058Z,6.90
2022-07-31T23:21:26.365Z,7.50
2022-07-31T23:23:54.770Z,7.95
2022-07-31T23:26:25.738Z,10.15
2022-07-31T23:46:20.928Z,15.88
2022-07-31T23:48:55.090Z,13.07
2022-07-31T23:51:24.367Z,12.60
2022-07-31T23:53:52.821Z,13.35
2022-07-31T23:56:21.198Z,13.45
2022-07-31T23:58:49.538Z,13.38
